createdAt,value
2023-02-16T00:01:41.849Z,21.77
2023-02-16T00:04:29.267Z,20.42
2023-02-16T00:06:56.672Z,20.13
2023-02-16T00:09:24.312Z,20.10
2023-02-16T00:12:11.204Z,20.15
2023-02-16T00:14:39.800Z,19.67
2023-02-16T00:17:07.270Z,19.58
2023-02-16T00:19:38.886Z,20.45
2023-02-16T00:22:07.040Z,20.27
2023-02-16T00:24:34.134Z,21.85
2023-02-16T00:27:01.495Z,21.35
2023-02-16T00:29:34.196Z,19.45
2023-02-16T00:32:02.217Z,21.17
2023-02-16T00:34:31.786Z,21.05
2023-02-16T00:37:01.626Z,21.52
2023-02-16T00:39:28.437Z,21.42
2023-02-16T00:42:00.054Z,21.67
2023-02-16T00:44:32.717Z,21.90
2023-02-16T00:47:15.832Z,21.38
2023-02-16T00:49:42.278Z,20.20
2023-02-16T00:52:32.314Z,20.33
2023-02-16T00:55:00.410Z,21.17
2023-02-16T00:57:30.978Z,20.08
2023-02-16T01:00:06.330Z,21.77
2023-02-16T01:02:32.938Z,21.45
2023-02-16T01:04:59.394Z,21.33
2023-02-16T01:07:45.036Z,22.27
2023-02-16T01:10:35.358Z,23.40
2023-02-16T01:13:01.983Z,20.20
2023-02-16T01:15:28.516Z,21.00
2023-02-16T01:17:55.227Z,20.20
2023-02-16T01:20:25.539Z,22.50
2023-02-16T01:22:52.135Z,21.92
2023-02-16T01:25:18.591Z,21.73
2023-02-16T01:27:45.645Z,22.67
2023-02-16T01:30:20.089Z,22.38
2023-02-16T01:32:51.476Z,20.73
2023-02-16T01:35:30.713Z,21.73
2023-02-16T01:37:57.210Z,21.45
2023-02-16T01:40:35.688Z,22.75
2023-02-16T01:43:26.256Z,20.70
2023-02-16T01:46:22.891Z,21.25
2023-02-16T01:48:49.645Z,21.45
2023-02-16T01:51:20.458Z,20.88
2023-02-16T01:54:11.933Z,21.38
2023-02-16T01:56:59.548Z,21.23
2023-02-16T01:59:29.021Z,21.15
2023-02-16T02:01:58.633Z,22.65
2023-02-16T02:05:05.343Z,20.98
2023-02-16T02:07:42.367Z,22.27
2023-02-16T02:10:11.749Z,21.85
2023-02-16T02:12:48.048Z,22.20
2023-02-16T02:15:17.078Z,20.83
2023-02-16T02:17:44.289Z,23.25
2023-02-16T02:20:16.223Z,22.63
2023-02-16T02:23:33.762Z,21.80
2023-02-16T02:26:38.922Z,20.70
2023-02-16T02:29:29.906Z,20.45
2023-02-16T02:32:21.120Z,20.30
2023-02-16T02:35:13.927Z,21.88
2023-02-16T02:38:00.513Z,20.10
2023-02-16T02:40:52.955Z,21.45
2023-02-16T02:43:27.862Z,21.10
2023-02-16T02:48:42.185Z,20.30
2023-02-16T02:51:27.335Z,20.58
2023-02-16T02:54:43.034Z,20.10
2023-02-16T02:57:38.013Z,19.70
2023-02-16T03:00:40.159Z,21.20
2023-02-16T03:03:22.043Z,20.45
2023-02-16T03:05:53.119Z,19.95
2023-02-16T03:08:25.191Z,21.08
2023-02-16T03:11:35.901Z,19.83
2023-02-16T03:14:07.360Z,18.92
2023-02-16T03:16:41.247Z,20.17
2023-02-16T03:19:29.236Z,20.63
2023-02-16T03:22:16.221Z,20.05
2023-02-16T03:25:01.770Z,21.00
2023-02-16T03:27:51.397Z,22.25
2023-02-16T03:30:19.615Z,21.15
2023-02-16T03:32:46.599Z,21.20
2023-02-16T03:35:13.484Z,23.00
2023-02-16T03:37:41.792Z,19.90
2023-02-16T03:40:29.766Z,21.13
2023-02-16T03:43:01.738Z,19.95
2023-02-16T03:45:28.339Z,22.08
2023-02-16T03:47:55.114Z,20.35
2023-02-16T03:50:21.853Z,21.88
2023-02-16T03:52:48.981Z,20.80
2023-02-16T03:55:15.777Z,22.75
2023-02-16T03:57:42.239Z,21.10
2023-02-16T04:00:09.502Z,21.65
2023-02-16T04:02:42.933Z,20.92
2023-02-16T04:05:09.457Z,21.42
2023-02-16T04:07:35.907Z,21.55
2023-02-16T04:10:02.385Z,22.10
2023-02-16T04:12:37.884Z,23.15
2023-02-16T04:15:12.818Z,21.95
2023-02-16T04:17:39.584Z,22.75
2023-02-16T04:20:07.320Z,21.40
2023-02-16T04:22:33.821Z,22.48
2023-02-16T04:25:00.626Z,22.13
2023-02-16T04:27:27.100Z,21.27
2023-02-16T04:29:53.705Z,22.20
2023-02-16T04:32:20.185Z,21.58
2023-02-16T04:34:46.763Z,20.95
2023-02-16T04:37:13.290Z,21.50
2023-02-16T04:39:39.832Z,20.83
2023-02-16T04:42:06.256Z,22.25
2023-02-16T04:44:32.708Z,21.98
2023-02-16T04:46:59.660Z,21.80
2023-02-16T04:49:26.256Z,20.88
2023-02-16T04:51:52.703Z,22.42
2023-02-16T04:54:19.211Z,20.33
2023-02-16T04:56:47.182Z,20.73
2023-02-16T04:59:15.243Z,22.30
2023-02-16T05:01:42.731Z,22.10
2023-02-16T05:04:12.190Z,20.95
2023-02-16T05:06:39.201Z,21.98
2023-02-16T05:09:06.808Z,22.23
2023-02-16T05:11:52.261Z,21.58
2023-02-16T05:14:43.128Z,21.60
2023-02-16T05:17:23.847Z,22.50
2023-02-16T05:19:56.643Z,22.33
2023-02-16T05:22:24.314Z,21.98
2023-02-16T05:24:51.254Z,22.73
2023-02-16T05:27:23.677Z,21.65
2023-02-16T05:29:51.200Z,23.25
2023-02-16T05:32:18.206Z,23.17
2023-02-16T05:34:45.576Z,22.00
2023-02-16T05:37:13.415Z,21.77
2023-02-16T05:39:40.049Z,23.42
2023-02-16T05:42:06.730Z,22.80
2023-02-16T05:44:33.520Z,21.58
2023-02-16T05:46:59.984Z,25.17
2023-02-16T05:49:26.528Z,22.27
2023-02-16T05:51:52.945Z,24.35
2023-02-16T05:54:19.496Z,23.00
2023-02-16T05:56:48.298Z,23.15
2023-02-16T05:59:15.969Z,24.00
2023-02-16T06:01:42.964Z,24.25
2023-02-16T06:04:13.157Z,24.13
2023-02-16T06:06:40.435Z,24.23
2023-02-16T06:09:08.638Z,24.42
2023-02-16T06:11:38.578Z,25.25
2023-02-16T06:14:09.949Z,23.33
2023-02-16T06:16:39.057Z,23.70
2023-02-16T06:21:33.237Z,24.55
2023-02-16T06:23:59.814Z,24.60
2023-02-16T06:26:26.547Z,23.25
2023-02-16T06:28:53.203Z,24.52
2023-02-16T06:31:20.465Z,23.05
2023-02-16T06:33:47.817Z,24.33
2023-02-16T06:36:14.973Z,22.90
2023-02-16T06:38:41.514Z,24.58
2023-02-16T06:41:08.891Z,23.88
2023-02-16T06:43:35.495Z,23.92
2023-02-16T06:46:01.994Z,23.77
2023-02-16T06:48:28.449Z,24.27
2023-02-16T06:50:55.139Z,25.33
2023-02-16T06:53:21.718Z,24.27
2023-02-16T06:55:51.118Z,23.58
2023-02-16T06:58:17.586Z,23.73
2023-02-16T07:00:44.169Z,22.83
2023-02-16T07:03:10.698Z,24.33
2023-02-16T07:05:37.856Z,24.52
2023-02-16T07:08:04.580Z,23.63
2023-02-16T07:10:43.917Z,24.17
2023-02-16T07:13:15.319Z,23.45
2023-02-16T07:15:41.800Z,24.70
2023-02-16T07:18:08.208Z,23.55
2023-02-16T07:20:34.680Z,24.20
2023-02-16T07:23:01.166Z,24.45
2023-02-16T07:25:27.666Z,25.08
2023-02-16T07:27:54.729Z,23.80
2023-02-16T07:30:21.438Z,23.35
2023-02-16T07:32:48.203Z,23.48
2023-02-16T07:35:14.663Z,22.83
2023-02-16T07:37:41.172Z,24.48
2023-02-16T07:40:08.131Z,24.02
2023-02-16T07:42:34.575Z,22.90
2023-02-16T07:45:03.230Z,23.80
2023-02-16T07:47:29.821Z,23.02
2023-02-16T07:49:56.286Z,24.48
2023-02-16T07:52:22.722Z,25.70
2023-02-16T07:54:49.129Z,24.25
2023-02-16T07:57:15.519Z,24.50
2023-02-16T07:59:42.165Z,24.67
2023-02-16T08:02:15.416Z,23.23
2023-02-16T08:04:42.208Z,24.58
2023-02-16T08:07:14.597Z,24.50
2023-02-16T08:09:41.282Z,22.88
2023-02-16T08:12:09.933Z,23.88
2023-02-16T08:14:36.839Z,23.08
2023-02-16T08:17:04.246Z,23.83
2023-02-16T08:19:31.064Z,23.52
2023-02-16T08:21:58.448Z,24.02
2023-02-16T08:24:25.463Z,23.77
2023-02-16T08:26:54.378Z,23.85
2023-02-16T08:29:21.490Z,24.67
2023-02-16T08:31:48.203Z,22.27
2023-02-16T08:34:16.858Z,22.80
2023-02-16T08:36:45.795Z,23.20
2023-02-16T08:39:15.072Z,23.05
2023-02-16T08:41:42.581Z,25.08
2023-02-16T08:44:10.946Z,24.13
2023-02-16T08:46:40.036Z,23.90
2023-02-16T08:49:07.891Z,23.55
2023-02-16T08:51:37.943Z,23.90
2023-02-16T08:54:08.095Z,24.70
2023-02-16T08:56:35.542Z,23.48
2023-02-16T08:59:02.273Z,22.25
2023-02-16T09:01:28.876Z,24.05
2023-02-16T09:03:55.448Z,22.15
2023-02-16T09:06:22.734Z,24.40
2023-02-16T09:08:54.576Z,21.98
2023-02-16T09:11:22.341Z,22.90
2023-02-16T09:13:49.414Z,24.00
2023-02-16T09:16:19.700Z,23.92
2023-02-16T09:18:46.659Z,24.50
2023-02-16T09:21:19.293Z,23.42
2023-02-16T09:23:48.193Z,25.15
2023-02-16T09:26:18.561Z,24.55
2023-02-16T09:28:46.156Z,23.80
2023-02-16T09:31:15.050Z,27.90
2023-02-16T09:33:43.613Z,25.65
2023-02-16T09:36:12.496Z,25.17
2023-02-16T09:38:40.016Z,26.95
2023-02-16T09:41:08.117Z,24.58
2023-02-16T09:43:48.586Z,26.63
2023-02-16T09:46:24.164Z,25.15
2023-02-16T09:48:53.334Z,25.75
2023-02-16T09:53:58.172Z,23.52
2023-02-16T09:56:44.437Z,25.23
2023-02-16T09:59:39.285Z,25.52
2023-02-16T10:02:35.195Z,25.48
2023-02-16T10:05:20.286Z,24.83
2023-02-16T10:07:58.814Z,25.60
2023-02-16T10:10:33.914Z,25.60
2023-02-16T10:13:07.610Z,24.88
2023-02-16T10:15:38.146Z,26.05
2023-02-16T10:18:15.125Z,24.88
2023-02-16T10:20:46.070Z,26.40
2023-02-16T10:23:34.141Z,26.42
2023-02-16T10:26:15.041Z,24.50
2023-02-16T10:28:46.381Z,26.17
2023-02-16T10:31:20.504Z,26.35
2023-02-16T10:34:08.959Z,25.67
2023-02-16T10:36:46.384Z,26.08
2023-02-16T10:39:32.688Z,27.00
2023-02-16T10:42:09.688Z,26.85
2023-02-16T10:44:41.122Z,24.45
2023-02-16T10:47:29.874Z,26.35
2023-02-16T10:49:56.324Z,24.00
2023-02-16T10:52:24.606Z,25.77
2023-02-16T10:54:51.423Z,25.95
2023-02-16T10:57:26.564Z,25.00
2023-02-16T10:59:54.621Z,25.35
2023-02-16T11:02:34.890Z,25.30
2023-02-16T11:05:01.860Z,26.55
2023-02-16T11:07:31.164Z,27.42
2023-02-16T11:10:01.390Z,25.95
2023-02-16T11:12:38.341Z,23.88
2023-02-16T11:15:22.116Z,24.00
2023-02-16T11:17:55.582Z,24.23
2023-02-16T11:20:35.723Z,26.00
2023-02-16T11:23:23.017Z,25.58
2023-02-16T11:26:00.320Z,24.40
2023-02-16T11:28:35.967Z,25.45
2023-02-16T11:31:12.511Z,25.70
2023-02-16T11:33:41.393Z,25.92
2023-02-16T11:36:25.028Z,25.73
2023-02-16T11:39:02.402Z,26.60
2023-02-16T11:41:33.324Z,25.77
2023-02-16T11:44:02.022Z,24.23
2023-02-16T11:46:40.118Z,26.50
2023-02-16T11:49:34.543Z,25.65
2023-02-16T11:52:19.518Z,25.02
2023-02-16T11:54:54.297Z,23.92
2023-02-16T11:57:28.445Z,25.20
2023-02-16T11:59:56.942Z,25.23
2023-02-16T12:02:45.129Z,25.65
2023-02-16T12:05:23.212Z,25.50
2023-02-16T12:08:08.223Z,25.10
2023-02-16T12:10:42.815Z,25.88
2023-02-16T12:13:37.615Z,25.63
2023-02-16T12:16:22.705Z,25.08
2023-02-16T12:19:22.940Z,26.20
2023-02-16T12:22:06.098Z,27.33
2023-02-16T12:24:35.913Z,26.85
2023-02-16T12:27:07.171Z,26.10
2023-02-16T12:29:55.121Z,25.80
2023-02-16T12:32:49.931Z,23.75
2023-02-16T12:35:38.080Z,24.92
2023-02-16T12:38:24.480Z,24.52
2023-02-16T12:41:12.556Z,23.52
2023-02-16T12:43:46.608Z,23.42
2023-02-16T12:46:27.047Z,22.80
2023-02-16T12:48:58.846Z,25.98
2023-02-16T12:51:43.630Z,23.42
2023-02-16T12:54:22.174Z,23.52
2023-02-16T12:57:12.504Z,26.05
2023-02-16T12:59:46.032Z,25.23
2023-02-16T13:02:36.507Z,23.33
2023-02-16T13:05:09.510Z,25.42
2023-02-16T13:07:39.937Z,23.67
2023-02-16T13:10:24.756Z,23.73
2023-02-16T13:13:00.773Z,24.13
2023-02-16T13:15:43.701Z,23.48
2023-02-16T13:18:32.863Z,23.15
2023-02-16T13:21:10.217Z,22.65
2023-02-16T13:24:04.218Z,21.95
2023-02-16T13:26:31.138Z,22.90
2023-02-16T13:29:10.844Z,23.10
2023-02-16T13:32:03.863Z,24.90
2023-02-16T13:34:54.947Z,22.08
2023-02-16T13:37:33.508Z,21.23
2023-02-16T13:40:34.837Z,21.85
2023-02-16T13:43:01.289Z,21.65
2023-02-16T13:45:32.246Z,22.55
2023-02-16T13:47:59.355Z,20.88
2023-02-16T13:50:32.876Z,20.67
2023-02-16T13:53:16.367Z,21.38
2023-02-16T13:55:42.945Z,19.50
2023-02-16T13:58:27.900Z,19.33
2023-02-16T14:00:54.795Z,19.85
2023-02-16T14:03:21.201Z,19.80
2023-02-16T14:06:12.085Z,17.65
2023-02-16T14:08:38.512Z,17.95
2023-02-16T14:11:08.313Z,16.70
2023-02-16T14:13:37.477Z,18.27
2023-02-16T14:16:14.486Z,15.60
2023-02-16T14:18:53.514Z,17.25
2023-02-16T14:21:32.408Z,16.20
2023-02-16T14:24:00.929Z,16.00
2023-02-16T14:26:27.827Z,15.98
2023-02-16T14:29:02.609Z,16.33
2023-02-16T14:34:12.463Z,15.52
2023-02-16T14:37:27.592Z,14.48
2023-02-16T14:40:08.823Z,15.98
2023-02-16T14:42:36.451Z,16.65
2023-02-16T14:45:05.662Z,15.13
2023-02-16T14:47:43.590Z,15.93
2023-02-16T14:50:31.809Z,14.68
2023-02-16T14:53:32.448Z,15.98
2023-02-16T14:56:08.545Z,14.65
2023-02-16T14:58:45.344Z,15.07
2023-02-16T15:01:16.249Z,14.40
2023-02-16T15:03:50.271Z,13.55
2023-02-16T15:06:42.824Z,12.15
2023-02-16T15:12:24.094Z,12.02
2023-02-16T15:15:09.935Z,10.35
2023-02-16T15:17:44.909Z,10.95
2023-02-16T15:20:21.573Z,10.68
2023-02-16T15:22:59.513Z,11.82
2023-02-16T15:25:32.578Z,13.00
2023-02-16T15:28:14.869Z,11.15
2023-02-16T15:30:46.728Z,12.20
2023-02-16T15:33:40.796Z,12.10
2023-02-16T15:36:12.018Z,12.93
2023-02-16T15:38:39.937Z,12.60
2023-02-16T15:41:15.870Z,13.15
2023-02-16T15:43:50.584Z,13.32
2023-02-16T15:46:31.486Z,13.63
2023-02-16T15:48:59.921Z,13.63
2023-02-16T15:51:34.740Z,14.70
2023-02-16T15:56:40.383Z,13.23
2023-02-16T15:59:47.462Z,13.38
2023-02-16T16:02:18.489Z,13.20
2023-02-16T16:04:50.110Z,15.68
2023-02-16T16:07:22.485Z,14.60
2023-02-16T16:09:49.038Z,14.23
2023-02-16T16:12:18.631Z,15.35
2023-02-16T16:14:56.090Z,15.65
2023-02-16T16:17:29.835Z,16.42
2023-02-16T16:19:58.117Z,15.90
2023-02-16T16:22:39.700Z,15.48
2023-02-16T16:25:42.774Z,15.98
2023-02-16T16:28:14.935Z,15.60
2023-02-16T16:30:43.869Z,16.08
2023-02-16T16:33:13.261Z,17.73
2023-02-16T16:35:50.709Z,15.95
2023-02-16T16:38:26.744Z,15.98
2023-02-16T16:40:58.437Z,15.27
2023-02-16T16:43:57.044Z,16.77
2023-02-16T16:46:26.752Z,16.67
2023-02-16T16:49:03.427Z,16.58
2023-02-16T16:51:43.183Z,15.73
2023-02-16T16:54:33.221Z,16.33
2023-02-16T16:56:59.809Z,16.60
2023-02-16T16:59:26.286Z,16.25
2023-02-16T17:01:52.987Z,16.63
2023-02-16T17:04:19.599Z,16.45
2023-02-16T17:06:46.078Z,16.20
2023-02-16T17:09:12.909Z,16.45
2023-02-16T17:11:41.727Z,17.40
2023-02-16T17:14:19.971Z,17.60
2023-02-16T17:16:50.941Z,18.25
2023-02-16T17:19:19.680Z,17.60
2023-02-16T17:21:47.974Z,18.20
2023-02-16T17:24:15.381Z,19.38
2023-02-16T17:26:41.962Z,17.48
2023-02-16T17:29:08.688Z,18.35
2023-02-16T17:31:35.583Z,18.55
2023-02-16T17:34:02.229Z,19.52
2023-02-16T17:36:28.954Z,18.77
2023-02-16T17:38:55.457Z,19.73
2023-02-16T17:41:25.238Z,20.17
2023-02-16T17:43:52.286Z,20.88
2023-02-16T17:46:20.018Z,20.67
2023-02-16T17:48:50.565Z,20.17
2023-02-16T17:51:19.780Z,21.08
2023-02-16T17:53:46.261Z,20.52
2023-02-16T17:56:14.946Z,21.23
2023-02-16T17:58:41.563Z,19.60
2023-02-16T18:01:13.103Z,22.67
2023-02-16T18:03:39.715Z,21.05
2023-02-16T18:06:06.609Z,20.48
2023-02-16T18:08:33.354Z,18.92
2023-02-16T18:11:02.931Z,21.45
2023-02-16T18:13:29.731Z,19.50
2023-02-16T18:15:57.445Z,21.42
2023-02-16T18:18:24.182Z,21.05
2023-02-16T18:20:51.001Z,20.60
2023-02-16T18:23:17.824Z,20.58
2023-02-16T18:25:44.355Z,21.25
2023-02-16T18:28:14.663Z,20.10
2023-02-16T18:30:41.554Z,19.52
2023-02-16T18:33:07.975Z,20.25
2023-02-16T18:35:34.388Z,18.65
2023-02-16T18:38:00.783Z,20.83
2023-02-16T18:40:27.330Z,19.05
2023-02-16T18:42:53.923Z,19.73
2023-02-16T18:45:20.524Z,21.38
2023-02-16T18:47:46.949Z,20.10
2023-02-16T18:50:13.498Z,17.70
2023-02-16T18:52:42.442Z,19.40
2023-02-16T18:57:36.253Z,17.20
2023-02-16T19:00:05.272Z,17.42
2023-02-16T19:02:31.753Z,17.88
2023-02-16T19:04:58.803Z,18.33
2023-02-16T19:07:25.299Z,18.05
2023-02-16T19:09:51.859Z,17.45
2023-02-16T19:12:18.307Z,17.55
2023-02-16T19:14:44.920Z,18.17
2023-02-16T19:17:11.406Z,18.63
2023-02-16T19:19:38.380Z,17.35
2023-02-16T19:22:05.013Z,18.08
2023-02-16T19:24:31.671Z,18.58
2023-02-16T19:26:58.177Z,18.92
2023-02-16T19:29:24.634Z,17.88
2023-02-16T19:31:51.132Z,17.73
2023-02-16T19:34:17.822Z,19.60
2023-02-16T19:36:44.675Z,17.83
2023-02-16T19:39:12.566Z,15.95
2023-02-16T19:41:41.049Z,15.82
2023-02-16T19:44:07.782Z,15.52
2023-02-16T19:46:35.336Z,16.00
2023-02-16T19:49:01.931Z,16.30
2023-02-16T19:51:28.606Z,14.35
2023-02-16T19:53:55.158Z,15.93
2023-02-16T19:56:24.260Z,15.68
2023-02-16T20:01:25.509Z,14.45
2023-02-16T20:06:23.468Z,14.02
2023-02-16T20:08:51.465Z,13.70
2023-02-16T20:11:20.112Z,13.43
2023-02-16T20:13:47.264Z,13.50
2023-02-16T20:16:14.958Z,13.23
2023-02-16T20:18:42.260Z,13.63
2023-02-16T20:21:12.520Z,13.15
2023-02-16T20:23:39.572Z,12.38
2023-02-16T20:26:12.267Z,11.52
2023-02-16T20:28:39.118Z,10.82
2023-02-16T20:31:22.042Z,13.23
2023-02-16T20:33:48.663Z,12.25
2023-02-16T20:36:16.289Z,10.38
2023-02-16T20:38:42.969Z,10.43
2023-02-16T20:41:09.433Z,11.20
2023-02-16T20:43:36.548Z,10.95
2023-02-16T20:46:04.867Z,10.82
2023-02-16T20:48:31.755Z,11.18
2023-02-16T20:51:00.652Z,10.45
2023-02-16T20:53:28.775Z,10.32
2023-02-16T20:56:10.902Z,9.68
2023-02-16T20:58:38.009Z,10.27
2023-02-16T21:01:13.031Z,10.68
2023-02-16T21:03:39.894Z,10.15
2023-02-16T21:06:06.707Z,10.10
2023-02-16T21:08:33.380Z,8.77
2023-02-16T21:11:00.133Z,10.75
2023-02-16T21:13:26.810Z,9.88
2023-02-16T21:15:53.571Z,9.55
2023-02-16T21:18:20.019Z,9.23
2023-02-16T21:20:46.514Z,9.63
2023-02-16T21:23:13.205Z,8.45
2023-02-16T21:25:39.906Z,9.13
2023-02-16T21:28:06.459Z,8.23
2023-02-16T21:30:33.029Z,10.30
2023-02-16T21:32:59.436Z,8.07
2023-02-16T21:35:25.869Z,9.48
2023-02-16T21:37:52.333Z,9.38
2023-02-16T21:40:37.671Z,9.18
2023-02-16T21:43:04.197Z,8.63
2023-02-16T21:45:30.816Z,9.40
2023-02-16T21:48:15.596Z,8.88
2023-02-16T21:50:42.132Z,8.13
2023-02-16T21:53:09.507Z,7.60
2023-02-16T21:55:56.168Z,8.30
2023-02-16T21:58:26.781Z,6.40
2023-02-16T22:00:53.613Z,8.05
2023-02-16T22:03:20.688Z,8.55
2023-02-16T22:05:47.422Z,7.13
2023-02-16T22:08:14.676Z,7.80
2023-02-16T22:10:41.266Z,7.18
2023-02-16T22:13:07.854Z,7.22
2023-02-16T22:15:38.352Z,6.65
2023-02-16T22:18:05.492Z,7.65
2023-02-16T22:20:32.184Z,6.53
2023-02-16T22:22:58.743Z,6.95
2023-02-16T22:25:25.171Z,6.93
2023-02-16T22:27:51.689Z,6.50
2023-02-16T22:30:18.285Z,6.38
2023-02-16T22:32:44.761Z,5.95
2023-02-16T22:35:12.359Z,6.13
2023-02-16T22:37:38.809Z,6.50
2023-02-16T22:40:05.834Z,6.10
2023-02-16T22:42:32.291Z,5.40
2023-02-16T22:44:58.711Z,5.78
2023-02-16T22:47:25.190Z,5.90
2023-02-16T22:49:51.686Z,6.20
2023-02-16T22:52:18.284Z,6.30
2023-02-16T22:54:44.917Z,5.82
2023-02-16T22:57:11.474Z,5.75
2023-02-16T22:59:37.891Z,6.45
2023-02-16T23:02:04.431Z,5.82
2023-02-16T23:04:30.946Z,5.90
2023-02-16T23:06:57.368Z,6.32
2023-02-16T23:09:23.835Z,6.47
2023-02-16T23:11:50.347Z,6.63
2023-02-16T23:14:18.360Z,6.90
2023-02-16T23:16:50.936Z,7.72
2023-02-16T23:19:19.975Z,6.30
2023-02-16T23:24:16.657Z,7.30
2023-02-16T23:26:43.409Z,6.70
2023-02-16T23:29:10.016Z,6.93
2023-02-16T23:31:39.405Z,8.07
2023-02-16T23:34:06.798Z,7.82
2023-02-16T23:36:34.777Z,7.82
2023-02-16T23:39:02.936Z,7.35
2023-02-16T23:41:29.522Z,6.63
2023-02-16T23:43:56.467Z,7.70
2023-02-16T23:46:23.577Z,7.82
2023-02-16T23:48:50.317Z,8.07
2023-02-16T23:51:16.826Z,8.90
2023-02-16T23:53:44.003Z,7.38
2023-02-16T23:56:18.845Z,7.32
2023-02-16T23:58:45.891Z,9.65
